createdAt,value
2023-03-24T00:00:48.050Z,100652.06
2023-03-24T00:03:25.923Z,100662.78
2023-03-24T00:05:58.689Z,100659.28
2023-03-24T00:08:30.843Z,100665.69
2023-03-24T00:11:00.607Z,100661.66
2023-03-24T00:13:29.141Z,100664.66
2023-03-24T00:15:56.971Z,100673.44
2023-03-24T00:18:26.347Z,100665.69
2023-03-24T00:20:59.278Z,100670.97
2023-03-24T00:23:28.235Z,100675.00
2023-03-24T00:26:02.959Z,100673.38
2023-03-24T00:28:33.514Z,100674.13
2023-03-24T00:31:02.311Z,100673.91
2023-03-24T00:33:35.461Z,100662.34
2023-03-24T00:36:05.717Z,100658.84
2023-03-24T00:38:34.763Z,100667.53
2023-03-24T00:41:02.669Z,100670.56
2023-03-24T00:43:30.952Z,100668.56
2023-03-24T00:46:04.253Z,100665.63
2023-03-24T00:48:35.443Z,100669.09
2023-03-24T00:51:03.279Z,100665.00
2023-03-24T00:53:31.697Z,100669.69
2023-03-24T00:55:59.406Z,100660.94
2023-03-24T00:58:30.154Z,100664.22
2023-03-24T01:00:58.547Z,100673.63
2023-03-24T01:03:51.186Z,100683.81
2023-03-24T01:06:22.493Z,100681.03
2023-03-24T01:08:54.011Z,100675.19
2023-03-24T01:11:22.968Z,100670.25
2023-03-24T01:13:51.681Z,100664.94
2023-03-24T01:16:19.504Z,100659.34
2023-03-24T01:18:49.708Z,100650.66
2023-03-24T01:21:18.459Z,100648.09
2023-03-24T01:23:46.554Z,100640.97
2023-03-24T01:26:14.329Z,100636.66
2023-03-24T01:28:44.044Z,100623.16
2023-03-24T01:31:12.041Z,100619.88
2023-03-24T01:33:40.823Z,100617.91
2023-03-24T01:36:10.114Z,100618.91
2023-03-24T01:38:38.571Z,100615.09
2023-03-24T01:41:06.844Z,100617.72
2023-03-24T01:43:36.075Z,100622.81
2023-03-24T01:46:08.842Z,100628.22
2023-03-24T01:48:46.021Z,100620.47
2023-03-24T01:51:22.332Z,100606.97
2023-03-24T01:53:55.332Z,100609.84
2023-03-24T01:56:24.520Z,100612.09
2023-03-24T01:58:56.388Z,100609.19
2023-03-24T02:01:39.460Z,100618.38
2023-03-24T02:04:28.202Z,100624.91
2023-03-24T02:07:05.802Z,100618.63
2023-03-24T02:09:34.122Z,100622.44
2023-03-24T02:12:03.390Z,100616.75
2023-03-24T02:14:33.243Z,100611.91
2023-03-24T02:17:17.671Z,100611.81
2023-03-24T02:19:52.509Z,100610.53
2023-03-24T02:22:20.215Z,100607.84
2023-03-24T02:24:48.406Z,100602.78
2023-03-24T02:27:31.125Z,100600.47
2023-03-24T02:30:22.316Z,100608.47
2023-03-24T02:33:16.989Z,100597.84
2023-03-24T02:35:46.006Z,100591.09
2023-03-24T02:38:38.767Z,100601.84
2023-03-24T02:41:28.416Z,100588.88
2023-03-24T02:44:05.945Z,100584.31
2023-03-24T02:46:34.348Z,100591.84
2023-03-24T02:49:07.698Z,100586.28
2023-03-24T02:51:51.184Z,100584.56
2023-03-24T02:54:34.305Z,100583.13
2023-03-24T02:57:10.646Z,100582.16
2023-03-24T03:00:20.268Z,100586.31
2023-03-24T03:03:08.465Z,100578.78
2023-03-24T03:05:42.770Z,100578.31
2023-03-24T03:08:13.359Z,100581.91
2023-03-24T03:10:43.251Z,100582.84
2023-03-24T03:13:15.821Z,100584.13
2023-03-24T03:15:44.725Z,100590.25
2023-03-24T03:18:25.871Z,100582.91
2023-03-24T03:20:57.575Z,100584.94
2023-03-24T03:23:29.747Z,100584.13
2023-03-24T03:26:06.251Z,100574.69
2023-03-24T03:28:36.832Z,100578.28
2023-03-24T03:31:08.382Z,100578.44
2023-03-24T03:33:42.815Z,100573.38
2023-03-24T03:36:25.116Z,100571.81
2023-03-24T03:38:53.596Z,100562.44
2023-03-24T03:41:21.550Z,100567.59
2023-03-24T03:43:51.066Z,100567.94
2023-03-24T03:46:19.413Z,100563.34
2023-03-24T03:48:49.053Z,100574.38
2023-03-24T03:51:16.727Z,100560.53
2023-03-24T03:53:53.687Z,100558.09
2023-03-24T03:56:24.444Z,100562.34
2023-03-24T03:59:26.294Z,100553.31
2023-03-24T04:01:56.950Z,100555.31
2023-03-24T04:04:53.178Z,100554.22
2023-03-24T04:07:48.236Z,100555.13
2023-03-24T04:10:44.836Z,100565.31
2023-03-24T04:13:35.174Z,100558.00
2023-03-24T04:16:42.408Z,100561.78
2023-03-24T04:19:44.027Z,100554.34
2023-03-24T04:22:15.895Z,100555.91
2023-03-24T04:24:50.205Z,100557.09
2023-03-24T04:27:57.309Z,100561.56
2023-03-24T04:30:27.674Z,100562.75
2023-03-24T04:32:58.722Z,100562.09
2023-03-24T04:35:33.073Z,100569.34
2023-03-24T04:38:18.695Z,100564.03
2023-03-24T04:40:56.139Z,100566.75
2023-03-24T04:43:28.144Z,100564.97
2023-03-24T04:45:58.120Z,100560.41
2023-03-24T04:48:58.705Z,100560.38
2023-03-24T04:51:37.716Z,100554.69
2023-03-24T04:54:10.026Z,100557.47
2023-03-24T04:56:42.368Z,100561.38
2023-03-24T04:59:16.715Z,100559.03
2023-03-24T05:01:52.098Z,100569.03
2023-03-24T05:04:40.598Z,100573.91
2023-03-24T05:07:15.707Z,100579.06
2023-03-24T05:09:45.030Z,100571.78
2023-03-24T05:12:13.212Z,100583.31
2023-03-24T05:15:01.801Z,100577.19
2023-03-24T05:17:29.685Z,100579.84
2023-03-24T05:19:57.658Z,100589.19
2023-03-24T05:22:25.309Z,100581.53
2023-03-24T05:24:53.240Z,100596.56
2023-03-24T05:27:21.372Z,100591.16
2023-03-24T05:29:49.592Z,100588.47
2023-03-24T05:32:25.955Z,100585.47
2023-03-24T05:34:54.163Z,100598.91
2023-03-24T05:37:29.966Z,100596.16
2023-03-24T05:39:57.957Z,100596.22
2023-03-24T05:42:49.614Z,100604.19
2023-03-24T05:45:17.873Z,100601.25
2023-03-24T05:47:46.450Z,100609.53
2023-03-24T05:50:14.813Z,100604.31
2023-03-24T05:52:43.314Z,100603.66
2023-03-24T05:55:37.947Z,100620.66
2023-03-24T05:58:20.112Z,100621.44
2023-03-24T06:00:52.454Z,100630.97
2023-03-24T06:03:34.816Z,100627.50
2023-03-24T06:06:17.056Z,100630.66
2023-03-24T06:08:45.606Z,100623.91
2023-03-24T06:11:15.176Z,100623.47
2023-03-24T06:13:53.595Z,100618.84
2023-03-24T06:16:24.250Z,100622.56
2023-03-24T06:18:56.001Z,100616.72
2023-03-24T06:21:44.892Z,100625.69
2023-03-24T06:24:15.109Z,100618.72
2023-03-24T06:26:46.052Z,100626.34
2023-03-24T06:29:18.548Z,100608.41
2023-03-24T06:31:48.852Z,100609.41
2023-03-24T06:34:17.133Z,100625.91
2023-03-24T06:36:53.438Z,100619.91
2023-03-24T06:39:21.781Z,100619.00
2023-03-24T06:41:50.061Z,100621.25
2023-03-24T06:44:17.808Z,100624.38
2023-03-24T06:46:47.577Z,100633.38
2023-03-24T06:49:15.624Z,100634.56
2023-03-24T06:51:43.607Z,100640.81
2023-03-24T06:54:13.875Z,100631.72
2023-03-24T06:56:42.011Z,100630.94
2023-03-24T06:59:10.437Z,100631.34
2023-03-24T07:01:39.915Z,100631.56
2023-03-24T07:04:36.833Z,100626.19
2023-03-24T07:07:44.837Z,100637.59
2023-03-24T07:10:30.604Z,100635.41
2023-03-24T07:12:59.873Z,100654.69
2023-03-24T07:15:27.782Z,100654.09
2023-03-24T07:17:56.732Z,100648.53
2023-03-24T07:20:50.721Z,100651.06
2023-03-24T07:23:21.104Z,100657.38
2023-03-24T07:26:03.642Z,100650.28
2023-03-24T07:28:50.168Z,100655.72
2023-03-24T07:31:38.275Z,100654.03
2023-03-24T07:34:09.385Z,100659.16
2023-03-24T07:36:40.082Z,100657.50
2023-03-24T07:39:13.754Z,100657.22
2023-03-24T07:41:41.742Z,100651.97
2023-03-24T07:44:19.705Z,100645.31
2023-03-24T07:46:51.120Z,100650.00
2023-03-24T07:49:20.189Z,100649.69
2023-03-24T07:52:09.986Z,100643.66
2023-03-24T07:54:41.558Z,100637.66
2023-03-24T07:57:11.073Z,100639.50
2023-03-24T07:59:39.823Z,100638.00
2023-03-24T08:02:33.457Z,100647.03
2023-03-24T08:05:22.567Z,100647.88
2023-03-24T08:08:00.666Z,100641.91
2023-03-24T08:10:29.915Z,100647.06
2023-03-24T08:12:58.007Z,100640.94
2023-03-24T08:15:27.286Z,100638.06
2023-03-24T08:17:56.774Z,100648.50
2023-03-24T08:20:27.525Z,100643.16
2023-03-24T08:22:55.832Z,100647.75
2023-03-24T08:25:24.599Z,100639.56
2023-03-24T08:27:52.835Z,100643.75
2023-03-24T08:30:22.303Z,100639.72
2023-03-24T08:32:54.394Z,100648.38
2023-03-24T08:35:24.096Z,100648.16
2023-03-24T08:37:52.257Z,100646.03
2023-03-24T08:40:23.514Z,100639.84
2023-03-24T08:42:53.482Z,100650.34
2023-03-24T08:45:22.014Z,100664.19
2023-03-24T08:47:52.240Z,100654.63
2023-03-24T08:50:21.798Z,100648.78
2023-03-24T08:52:50.352Z,100655.19
2023-03-24T08:55:19.318Z,100660.50
2023-03-24T08:57:47.773Z,100655.75
2023-03-24T09:00:16.021Z,100661.84
2023-03-24T09:02:45.686Z,100657.22
2023-03-24T09:05:15.576Z,100651.59
2023-03-24T09:07:43.575Z,100652.78
2023-03-24T09:10:11.275Z,100649.47
2023-03-24T09:12:39.510Z,100649.28
2023-03-24T09:15:08.511Z,100643.84
2023-03-24T09:17:37.038Z,100647.06
2023-03-24T09:20:08.844Z,100662.34
2023-03-24T09:22:37.656Z,100656.41
2023-03-24T09:25:05.701Z,100657.09
2023-03-24T09:27:33.800Z,100653.84
2023-03-24T09:30:01.494Z,100646.50
2023-03-24T09:32:29.825Z,100653.47
2023-03-24T09:34:57.450Z,100652.03
2023-03-24T09:37:25.828Z,100655.94
2023-03-24T09:39:55.226Z,100643.34
2023-03-24T09:42:24.566Z,100648.28
2023-03-24T09:44:56.979Z,100645.13
2023-03-24T09:47:40.182Z,100645.88
2023-03-24T09:50:09.824Z,100642.72
2023-03-24T09:52:40.188Z,100637.63
2023-03-24T09:55:14.498Z,100638.34
2023-03-24T09:57:45.001Z,100642.94
2023-03-24T10:00:15.813Z,100643.34
2023-03-24T10:02:44.099Z,100650.75
2023-03-24T10:05:21.781Z,100652.31
2023-03-24T10:07:53.051Z,100656.50
2023-03-24T10:10:34.233Z,100647.19
2023-03-24T10:13:22.342Z,100647.78
2023-03-24T10:16:00.329Z,100650.31
2023-03-24T10:18:35.049Z,100647.56
2023-03-24T10:21:22.701Z,100644.47
2023-03-24T10:24:10.852Z,100638.28
2023-03-24T10:26:58.644Z,100625.41
2023-03-24T10:29:34.824Z,100620.63
2023-03-24T10:32:02.521Z,100622.63
2023-03-24T10:34:33.139Z,100630.47
2023-03-24T10:37:02.392Z,100622.31
2023-03-24T10:39:41.960Z,100615.19
2023-03-24T10:42:32.865Z,100612.41
2023-03-24T10:45:01.016Z,100612.75
2023-03-24T10:47:32.923Z,100605.97
2023-03-24T10:50:12.685Z,100601.31
2023-03-24T10:52:47.621Z,100612.25
2023-03-24T10:55:19.417Z,100616.09
2023-03-24T10:57:50.001Z,100616.00
2023-03-24T11:00:24.655Z,100615.47
2023-03-24T11:02:57.885Z,100600.03
2023-03-24T11:05:30.093Z,100595.59
2023-03-24T11:08:13.179Z,100602.63
2023-03-24T11:10:41.155Z,100597.97
2023-03-24T11:13:18.994Z,100592.16
2023-03-24T11:15:54.296Z,100586.13
2023-03-24T11:18:22.422Z,100582.44
2023-03-24T11:20:58.331Z,100579.81
2023-03-24T11:23:25.925Z,100580.06
2023-03-24T11:26:04.483Z,100577.69
2023-03-24T11:28:36.199Z,100580.84
2023-03-24T11:31:08.391Z,100568.00
2023-03-24T11:33:42.269Z,100571.13
2023-03-24T11:36:34.005Z,100580.44
2023-03-24T11:39:11.147Z,100570.41
2023-03-24T11:41:42.097Z,100559.88
2023-03-24T11:44:21.811Z,100564.56
2023-03-24T11:46:58.622Z,100563.41
2023-03-24T11:49:28.143Z,100552.91
2023-03-24T11:51:56.213Z,100555.50
2023-03-24T11:54:44.051Z,100562.78
2023-03-24T11:57:13.938Z,100553.66
2023-03-24T12:00:00.378Z,100538.75
2023-03-24T12:02:47.217Z,100542.38
2023-03-24T12:05:26.917Z,100542.34
2023-03-24T12:08:07.257Z,100533.97
2023-03-24T12:10:34.860Z,100530.72
2023-03-24T12:13:13.492Z,100524.31
2023-03-24T12:15:55.637Z,100531.16
2023-03-24T12:18:23.610Z,100531.44
2023-03-24T12:21:09.670Z,100523.59
2023-03-24T12:23:54.974Z,100519.69
2023-03-24T12:26:28.008Z,100531.34
2023-03-24T12:29:07.633Z,100525.47
2023-03-24T12:31:47.524Z,100513.28
2023-03-24T12:34:33.952Z,100493.72
2023-03-24T12:37:07.405Z,100498.34
2023-03-24T12:39:37.786Z,100502.06
2023-03-24T12:42:05.438Z,100492.91
2023-03-24T12:44:58.131Z,100495.25
2023-03-24T12:47:25.967Z,100492.91
2023-03-24T12:50:12.367Z,100484.59
2023-03-24T12:52:49.061Z,100488.03
2023-03-24T12:55:35.739Z,100477.31
2023-03-24T12:58:12.428Z,100487.22
2023-03-24T13:00:46.838Z,100470.00
2023-03-24T13:03:21.664Z,100483.72
2023-03-24T13:05:56.632Z,100472.06
2023-03-24T13:08:30.438Z,100460.16
2023-03-24T13:11:02.942Z,100454.75
2023-03-24T13:13:33.206Z,100458.56
2023-03-24T13:16:03.531Z,100442.41
2023-03-24T13:19:00.437Z,100436.16
2023-03-24T13:21:30.181Z,100444.56
2023-03-24T13:24:01.107Z,100437.53
2023-03-24T13:26:47.865Z,100429.25
2023-03-24T13:29:21.942Z,100428.44
2023-03-24T13:31:57.440Z,100431.53
2023-03-24T13:34:31.522Z,100439.94
2023-03-24T13:37:04.404Z,100434.25
2023-03-24T13:39:34.844Z,100427.13
2023-03-24T13:42:03.395Z,100421.34
2023-03-24T13:44:42.761Z,100416.91
2023-03-24T13:47:17.869Z,100426.03
2023-03-24T13:49:59.443Z,100422.97
2023-03-24T13:52:31.234Z,100422.06
2023-03-24T13:55:00.689Z,100421.75
2023-03-24T13:57:28.923Z,100405.78
2023-03-24T14:00:12.296Z,100403.69
2023-03-24T14:02:42.782Z,100389.41
2023-03-24T14:05:12.308Z,100398.09
2023-03-24T14:07:40.390Z,100380.63
2023-03-24T14:10:10.892Z,100381.16
2023-03-24T14:12:52.231Z,100369.50
2023-03-24T14:15:40.163Z,100375.69
2023-03-24T14:18:16.119Z,100382.84
2023-03-24T14:20:56.019Z,100377.28
2023-03-24T14:23:29.840Z,100377.22
2023-03-24T14:25:58.811Z,100373.75
2023-03-24T14:28:47.727Z,100374.00
2023-03-24T14:31:18.590Z,100371.75
2023-03-24T14:34:02.361Z,100366.00
2023-03-24T14:36:39.841Z,100362.59
2023-03-24T14:39:27.287Z,100355.78
2023-03-24T14:41:55.892Z,100355.34
2023-03-24T14:44:43.630Z,100341.84
2023-03-24T14:47:12.156Z,100343.47
2023-03-24T14:49:43.167Z,100337.75
2023-03-24T14:52:17.493Z,100336.53
2023-03-24T14:55:20.815Z,100334.16
2023-03-24T14:57:52.091Z,100330.06
2023-03-24T15:00:23.087Z,100329.88
2023-03-24T15:02:52.638Z,100330.69
2023-03-24T15:05:23.586Z,100332.09
2023-03-24T15:08:09.416Z,100340.31
2023-03-24T15:10:56.046Z,100343.91
2023-03-24T15:13:43.409Z,100344.69
2023-03-24T15:16:11.504Z,100348.88
2023-03-24T15:19:01.776Z,100351.25
2023-03-24T15:21:43.885Z,100354.13
2023-03-24T15:24:23.275Z,100345.44
2023-03-24T15:27:14.173Z,100336.88
2023-03-24T15:29:42.837Z,100340.03
2023-03-24T15:32:17.290Z,100340.22
2023-03-24T15:34:50.816Z,100336.25
2023-03-24T15:37:48.496Z,100337.94
2023-03-24T15:40:30.687Z,100330.63
2023-03-24T15:43:03.782Z,100338.41
2023-03-24T15:45:32.984Z,100330.97
2023-03-24T15:48:27.515Z,100343.88
2023-03-24T15:50:57.029Z,100342.53
2023-03-24T15:53:27.532Z,100340.13
2023-03-24T15:56:02.702Z,100339.75
2023-03-24T15:58:32.577Z,100341.53
2023-03-24T16:01:03.024Z,100347.72
2023-03-24T16:03:34.450Z,100347.03
2023-03-24T16:06:03.149Z,100346.59
2023-03-24T16:08:41.376Z,100349.16
2023-03-24T16:11:12.293Z,100341.31
2023-03-24T16:13:41.270Z,100341.66
2023-03-24T16:16:11.798Z,100343.97
2023-03-24T16:18:41.377Z,100342.00
2023-03-24T16:21:13.672Z,100334.69
2023-03-24T16:23:44.833Z,100337.03
2023-03-24T16:26:15.568Z,100337.97
2023-03-24T16:28:43.934Z,100339.19
2023-03-24T16:31:18.388Z,100356.38
2023-03-24T16:33:47.063Z,100341.25
2023-03-24T16:36:15.550Z,100339.66
2023-03-24T16:38:44.392Z,100347.41
2023-03-24T16:41:14.936Z,100344.34
2023-03-24T16:43:43.691Z,100345.22
2023-03-24T16:46:16.278Z,100342.44
2023-03-24T16:48:44.930Z,100347.06
2023-03-24T16:51:16.585Z,100344.34
2023-03-24T16:53:45.484Z,100333.50
2023-03-24T16:56:14.454Z,100336.22
2023-03-24T16:58:42.683Z,100343.63
2023-03-24T17:01:27.553Z,100344.03
2023-03-24T17:03:55.893Z,100337.81
2023-03-24T17:06:24.418Z,100341.31
2023-03-24T17:08:52.569Z,100340.13
2023-03-24T17:11:24.244Z,100342.41
2023-03-24T17:13:52.122Z,100348.28
2023-03-24T17:16:19.729Z,100345.97
2023-03-24T17:18:47.673Z,100346.38
2023-03-24T17:21:16.842Z,100350.66
2023-03-24T17:23:47.093Z,100349.13
2023-03-24T17:26:14.963Z,100343.31
2023-03-24T17:28:43.112Z,100342.53
2023-03-24T17:31:10.988Z,100335.56
2023-03-24T17:33:39.032Z,100332.06
2023-03-24T17:36:06.896Z,100328.19
2023-03-24T17:38:34.951Z,100328.97
2023-03-24T17:41:04.224Z,100332.09
2023-03-24T17:43:33.070Z,100325.88
2023-03-24T17:46:01.626Z,100319.28
2023-03-24T17:48:29.910Z,100336.31
2023-03-24T17:50:57.568Z,100342.50
2023-03-24T17:53:25.952Z,100330.47
2023-03-24T17:55:54.881Z,100329.31
2023-03-24T17:58:24.202Z,100333.81
2023-03-24T18:00:52.230Z,100334.34
2023-03-24T18:03:21.885Z,100327.78
2023-03-24T18:05:50.305Z,100318.78
2023-03-24T18:08:18.563Z,100325.38
2023-03-24T18:10:46.514Z,100323.00
2023-03-24T18:13:14.724Z,100320.28
2023-03-24T18:15:43.088Z,100317.69
2023-03-24T18:18:11.288Z,100314.06
2023-03-24T18:20:39.534Z,100320.69
2023-03-24T18:23:07.709Z,100323.03
2023-03-24T18:25:35.652Z,100328.44
2023-03-24T18:28:03.756Z,100323.03
2023-03-24T18:30:32.506Z,100321.78
2023-03-24T18:33:01.788Z,100318.50
2023-03-24T18:35:29.875Z,100314.31
2023-03-24T18:37:57.874Z,100320.91
2023-03-24T18:40:25.515Z,100328.16
2023-03-24T18:42:53.469Z,100333.41
2023-03-24T18:45:21.232Z,100331.81
2023-03-24T18:47:49.148Z,100318.16
2023-03-24T18:50:16.964Z,100326.16
2023-03-24T18:52:44.886Z,100327.09
2023-03-24T18:55:12.611Z,100329.66
2023-03-24T18:57:41.268Z,100325.16
2023-03-24T19:00:10.942Z,100322.72
2023-03-24T19:02:39.285Z,100328.41
2023-03-24T19:05:07.147Z,100325.91
2023-03-24T19:07:37.260Z,100315.22
2023-03-24T19:10:05.500Z,100319.59
2023-03-24T19:12:33.647Z,100322.31
2023-03-24T19:15:01.816Z,100316.53
2023-03-24T19:17:29.749Z,100313.72
2023-03-24T19:19:58.360Z,100319.59
2023-03-24T19:22:27.091Z,100309.13
2023-03-24T19:24:54.690Z,100303.16
2023-03-24T19:27:23.556Z,100315.97
2023-03-24T19:29:51.422Z,100314.88
2023-03-24T19:32:19.492Z,100306.72
2023-03-24T19:34:47.302Z,100317.69
2023-03-24T19:37:15.376Z,100315.78
2023-03-24T19:39:42.920Z,100315.88
2023-03-24T19:42:10.853Z,100314.66
2023-03-24T19:44:38.431Z,100311.03
2023-03-24T19:47:06.404Z,100311.59
2023-03-24T19:49:33.966Z,100309.63
2023-03-24T19:52:01.961Z,100309.28
2023-03-24T19:54:29.611Z,100311.19
2023-03-24T19:56:57.761Z,100316.56
2023-03-24T19:59:26.674Z,100309.81
2023-03-24T20:01:54.611Z,100318.72
2023-03-24T20:04:22.525Z,100314.69
2023-03-24T20:06:51.092Z,100326.75
2023-03-24T20:09:18.673Z,100325.34
2023-03-24T20:11:47.721Z,100326.16
2023-03-24T20:14:17.030Z,100318.50
2023-03-24T20:16:44.957Z,100328.53
2023-03-24T20:19:12.591Z,100328.75
2023-03-24T20:21:40.831Z,100321.44
2023-03-24T20:24:08.667Z,100330.81
2023-03-24T20:26:37.799Z,100328.28
2023-03-24T20:29:05.470Z,100326.25
2023-03-24T20:31:33.580Z,100324.22
2023-03-24T20:34:02.450Z,100339.13
2023-03-24T20:36:31.560Z,100333.38
2023-03-24T20:38:59.810Z,100329.69
2023-03-24T20:41:28.067Z,100327.66
2023-03-24T20:43:56.729Z,100327.72
2023-03-24T20:46:24.734Z,100331.09
2023-03-24T20:48:52.375Z,100331.88
2023-03-24T20:51:20.948Z,100336.91
2023-03-24T20:53:49.919Z,100341.31
2023-03-24T20:56:19.460Z,100344.22
2023-03-24T20:58:47.181Z,100343.84
2023-03-24T21:01:23.051Z,100340.34
2023-03-24T21:03:51.879Z,100331.09
2023-03-24T21:06:20.653Z,100337.34
2023-03-24T21:08:48.184Z,100335.44
2023-03-24T21:11:16.333Z,100327.91
2023-03-24T21:13:44.076Z,100335.81
2023-03-24T21:16:12.366Z,100334.47
2023-03-24T21:18:43.991Z,100329.53
2023-03-24T21:21:12.800Z,100319.41
2023-03-24T21:23:41.371Z,100325.66
2023-03-24T21:26:12.531Z,100326.81
2023-03-24T21:28:40.380Z,100326.31
2023-03-24T21:31:09.639Z,100320.25
2023-03-24T21:33:41.055Z,100324.28
2023-03-24T21:36:10.089Z,100312.13
2023-03-24T21:38:39.750Z,100312.88
2023-03-24T21:41:07.890Z,100324.72
2023-03-24T21:43:35.730Z,100316.31
2023-03-24T21:46:04.158Z,100328.25
2023-03-24T21:48:35.061Z,100323.06
2023-03-24T21:51:04.264Z,100319.78
2023-03-24T21:53:32.191Z,100316.38
2023-03-24T21:56:08.661Z,100327.00
2023-03-24T21:58:36.481Z,100328.63
2023-03-24T22:01:04.548Z,100322.41
2023-03-24T22:03:34.742Z,100311.16
2023-03-24T22:06:03.390Z,100311.03
2023-03-24T22:08:31.189Z,100300.94
2023-03-24T22:10:59.986Z,100303.31
2023-03-24T22:13:28.505Z,100306.09
2023-03-24T22:15:57.529Z,100312.41
2023-03-24T22:18:26.412Z,100313.22
2023-03-24T22:21:01.197Z,100309.00
2023-03-24T22:23:33.048Z,100299.75
2023-03-24T22:26:04.378Z,100307.69
2023-03-24T22:28:33.082Z,100304.34
2023-03-24T22:31:01.823Z,100300.31
2023-03-24T22:33:29.499Z,100295.47
2023-03-24T22:35:58.196Z,100292.50
2023-03-24T22:38:26.198Z,100291.44
2023-03-24T22:41:12.893Z,100294.31
2023-03-24T22:43:42.163Z,100293.75
2023-03-24T22:46:10.797Z,100300.25
2023-03-24T22:48:39.024Z,100290.88
2023-03-24T22:51:07.196Z,100302.63
2023-03-24T22:53:36.146Z,100287.59
2023-03-24T22:56:06.419Z,100308.53
2023-03-24T22:58:35.888Z,100302.00
2023-03-24T23:01:04.053Z,100305.28
2023-03-24T23:03:31.664Z,100301.00
2023-03-24T23:06:03.610Z,100302.22
2023-03-24T23:08:32.537Z,100309.28
2023-03-24T23:11:00.686Z,100306.28
2023-03-24T23:13:31.317Z,100300.75
2023-03-24T23:15:59.290Z,100298.66
2023-03-24T23:18:26.958Z,100283.69
2023-03-24T23:21:01.521Z,100291.16
2023-03-24T23:23:29.076Z,100305.28
2023-03-24T23:25:57.716Z,100304.75
2023-03-24T23:28:25.595Z,100297.59
2023-03-24T23:30:54.680Z,100308.50
2023-03-24T23:33:22.492Z,100309.88
2023-03-24T23:35:55.739Z,100309.66
2023-03-24T23:38:23.877Z,100313.16
2023-03-24T23:40:51.794Z,100314.97
2023-03-24T23:43:19.405Z,100303.97
2023-03-24T23:45:47.515Z,100303.03
2023-03-24T23:48:15.190Z,100311.28
2023-03-24T23:50:46.494Z,100310.13
2023-03-24T23:53:14.133Z,100303.88
2023-03-24T23:55:42.127Z,100305.06
2023-03-24T23:58:09.740Z,100303.09
